createdAt,value
2022-11-16T00:00:39.308Z,0.66
2022-11-16T00:03:06.262Z,0.53
2022-11-16T00:05:34.619Z,0.47
2022-11-16T00:08:02.522Z,0.44
2022-11-16T00:10:30.665Z,0.47
2022-11-16T00:12:57.791Z,0.38
2022-11-16T00:15:24.786Z,0.45
2022-11-16T00:17:51.905Z,0.38
2022-11-16T00:20:18.944Z,0.44
2022-11-16T00:22:49.337Z,0.47
2022-11-16T00:25:16.145Z,0.46
2022-11-16T00:27:43.288Z,0.48
2022-11-16T00:30:10.894Z,0.47
2022-11-16T00:32:37.687Z,0.38
2022-11-16T00:35:05.129Z,0.39
2022-11-16T00:37:32.124Z,0.45
2022-11-16T00:40:00.312Z,0.42
2022-11-16T00:42:27.270Z,0.36
2022-11-16T00:44:54.189Z,0.39
2022-11-16T00:47:22.070Z,0.39
2022-11-16T00:49:49.161Z,0.38
2022-11-16T00:52:16.983Z,0.39
2022-11-16T00:54:44.033Z,0.38
2022-11-16T00:57:12.305Z,0.34
2022-11-16T00:59:39.337Z,0.42
2022-11-16T01:02:06.105Z,0.40
2022-11-16T01:04:33.607Z,0.35
2022-11-16T01:07:03.013Z,0.34
2022-11-16T01:09:30.102Z,0.32
2022-11-16T01:11:56.976Z,0.36
2022-11-16T01:14:26.336Z,0.42
2022-11-16T01:16:53.461Z,0.41
2022-11-16T01:19:20.308Z,0.37
2022-11-16T01:21:47.108Z,0.35
2022-11-16T01:24:14.441Z,0.33
2022-11-16T01:26:41.233Z,0.31
2022-11-16T01:29:08.372Z,0.28
2022-11-16T01:31:36.532Z,0.24
2022-11-16T01:34:03.356Z,0.27
2022-11-16T01:36:30.359Z,0.31
2022-11-16T01:38:57.371Z,0.32
2022-11-16T01:41:25.856Z,0.31
2022-11-16T01:43:55.740Z,0.31
2022-11-16T01:46:22.944Z,0.35
2022-11-16T01:48:54.758Z,0.33
2022-11-16T01:51:23.686Z,0.47
2022-11-16T01:53:50.752Z,0.33
2022-11-16T01:56:18.078Z,0.26
2022-11-16T01:58:45.609Z,0.23
2022-11-16T02:01:13.174Z,0.26
2022-11-16T02:03:40.188Z,0.29
2022-11-16T02:06:28.894Z,0.34
2022-11-16T02:09:16.509Z,0.28
2022-11-16T02:11:59.535Z,0.23
2022-11-16T02:14:37.783Z,0.31
2022-11-16T02:17:14.283Z,0.26
2022-11-16T02:20:01.355Z,0.45
2022-11-16T02:22:49.910Z,0.35
2022-11-16T02:25:30.530Z,0.36
2022-11-16T02:28:16.530Z,0.44
2022-11-16T02:30:48.948Z,0.37
2022-11-16T02:33:21.104Z,0.39
2022-11-16T02:35:52.666Z,0.30
2022-11-16T02:38:25.901Z,0.30
2022-11-16T02:40:57.351Z,0.25
2022-11-16T02:43:29.433Z,0.31
2022-11-16T02:46:04.094Z,0.26
2022-11-16T02:48:37.978Z,0.23
2022-11-16T02:51:06.742Z,0.22
2022-11-16T02:53:39.187Z,0.26
2022-11-16T02:56:06.406Z,0.28
2022-11-16T02:58:33.899Z,0.33
2022-11-16T03:01:08.209Z,0.32
2022-11-16T03:03:40.805Z,0.31
2022-11-16T03:06:13.041Z,0.36
2022-11-16T03:08:45.046Z,0.42
2022-11-16T03:11:13.016Z,0.41
2022-11-16T03:13:40.884Z,0.36
2022-11-16T03:16:15.153Z,0.38
2022-11-16T03:18:45.955Z,0.34
2022-11-16T03:21:19.000Z,0.38
2022-11-16T03:23:46.667Z,0.44
2022-11-16T03:26:16.580Z,0.48
2022-11-16T03:28:50.387Z,0.43
2022-11-16T03:31:24.292Z,0.32
2022-11-16T03:33:54.263Z,0.31
2022-11-16T03:36:27.640Z,0.45
2022-11-16T03:38:58.092Z,0.55
2022-11-16T03:41:28.664Z,0.47
2022-11-16T03:43:59.127Z,0.45
2022-11-16T03:46:27.559Z,0.51
2022-11-16T03:48:57.729Z,0.46
2022-11-16T03:51:25.227Z,0.38
2022-11-16T03:53:52.281Z,0.39
2022-11-16T03:56:22.530Z,0.35
2022-11-16T03:58:49.654Z,0.34
2022-11-16T04:01:17.662Z,0.32
2022-11-16T04:03:45.937Z,0.27
2022-11-16T04:06:12.867Z,0.33
2022-11-16T04:08:40.312Z,0.29
2022-11-16T04:11:11.317Z,0.29
2022-11-16T04:13:40.326Z,0.24
2022-11-16T04:16:08.873Z,0.27
2022-11-16T04:18:36.344Z,0.33
2022-11-16T04:21:05.496Z,0.34
2022-11-16T04:23:32.599Z,0.37
2022-11-16T04:26:00.010Z,0.24
2022-11-16T04:28:32.962Z,0.22
2022-11-16T04:31:02.967Z,0.21
2022-11-16T04:33:35.529Z,0.16
2022-11-16T04:36:02.462Z,0.18
2022-11-16T04:38:34.449Z,0.15
2022-11-16T04:41:01.515Z,0.13
2022-11-16T04:43:28.427Z,0.11
2022-11-16T04:45:55.186Z,0.32
2022-11-16T04:48:22.114Z,0.31
2022-11-16T04:50:49.094Z,0.27
2022-11-16T04:53:19.475Z,0.33
2022-11-16T04:55:47.670Z,0.27
2022-11-16T04:58:15.529Z,0.40
2022-11-16T05:00:42.347Z,0.39
2022-11-16T05:03:09.098Z,0.27
2022-11-16T05:05:36.658Z,0.23
2022-11-16T05:08:03.511Z,0.17
2022-11-16T05:10:30.546Z,0.20
2022-11-16T05:12:59.034Z,0.15
2022-11-16T05:15:25.794Z,0.17
2022-11-16T05:17:52.548Z,0.19
2022-11-16T05:20:19.331Z,0.19
2022-11-16T05:22:52.701Z,0.20
2022-11-16T05:25:19.977Z,0.16
2022-11-16T05:27:46.776Z,0.17
2022-11-16T05:30:15.837Z,0.17
2022-11-16T05:32:42.706Z,0.13
2022-11-16T05:35:09.615Z,0.12
2022-11-16T05:37:36.485Z,0.11
2022-11-16T05:40:04.380Z,0.11
2022-11-16T05:42:31.537Z,0.10
2022-11-16T05:44:58.450Z,0.10
2022-11-16T05:47:26.779Z,0.10
2022-11-16T05:49:53.594Z,0.15
2022-11-16T05:52:21.593Z,0.24
2022-11-16T05:54:48.449Z,0.17
2022-11-16T05:57:16.495Z,0.19
2022-11-16T05:59:43.493Z,0.19
2022-11-16T06:02:15.197Z,0.15
2022-11-16T06:04:57.664Z,0.13
2022-11-16T06:07:31.670Z,0.11
2022-11-16T06:10:07.585Z,0.15
2022-11-16T06:12:36.919Z,0.21
2022-11-16T06:15:04.450Z,0.21
2022-11-16T06:17:32.486Z,0.20
2022-11-16T06:20:00.606Z,0.25
2022-11-16T06:22:29.052Z,0.23
2022-11-16T06:24:57.139Z,0.30
2022-11-16T06:27:25.805Z,0.35
2022-11-16T06:29:54.691Z,0.37
2022-11-16T06:32:21.968Z,0.44
2022-11-16T06:34:49.893Z,0.46
2022-11-16T06:37:18.153Z,0.41
2022-11-16T06:39:46.045Z,1.10
2022-11-16T06:42:12.939Z,1.48
2022-11-16T06:44:39.885Z,1.11
2022-11-16T06:47:07.212Z,0.78
2022-11-16T06:49:35.384Z,0.64
2022-11-16T06:52:05.302Z,0.57
2022-11-16T06:54:38.402Z,0.40
2022-11-16T06:57:06.483Z,0.35
2022-11-16T06:59:35.206Z,0.33
2022-11-16T07:02:07.242Z,0.27
2022-11-16T07:04:37.803Z,0.30
2022-11-16T07:07:05.014Z,0.30
2022-11-16T07:09:34.672Z,0.30
2022-11-16T07:12:01.826Z,0.43
2022-11-16T07:14:29.030Z,0.37
2022-11-16T07:17:00.397Z,0.38
2022-11-16T07:19:31.559Z,0.37
2022-11-16T07:21:58.797Z,0.82
2022-11-16T07:24:27.685Z,0.99
2022-11-16T07:27:01.790Z,0.81
2022-11-16T07:29:31.774Z,0.86
2022-11-16T07:31:59.782Z,0.82
2022-11-16T07:34:26.652Z,0.72
2022-11-16T07:36:54.024Z,0.69
2022-11-16T07:39:22.091Z,0.79
2022-11-16T07:41:51.945Z,0.80
2022-11-16T07:44:22.354Z,1.11
2022-11-16T07:46:50.569Z,1.10
2022-11-16T07:49:18.497Z,1.19
2022-11-16T07:51:45.779Z,1.22
2022-11-16T07:54:16.894Z,1.19
2022-11-16T07:56:44.769Z,0.93
2022-11-16T07:59:11.708Z,1.04
2022-11-16T08:01:41.910Z,1.20
2022-11-16T08:04:09.472Z,1.05
2022-11-16T08:06:37.597Z,1.07
2022-11-16T08:09:04.648Z,1.01
2022-11-16T08:11:31.500Z,1.15
2022-11-16T08:13:59.218Z,1.00
2022-11-16T08:16:26.658Z,0.91
2022-11-16T08:18:56.224Z,1.10
2022-11-16T08:21:22.994Z,1.09
2022-11-16T08:23:56.752Z,0.90
2022-11-16T08:26:25.461Z,0.92
2022-11-16T08:28:52.726Z,0.87
2022-11-16T08:31:21.238Z,0.79
2022-11-16T08:33:48.393Z,0.70
2022-11-16T08:36:17.516Z,0.69
2022-11-16T08:38:45.645Z,0.60
2022-11-16T08:41:13.121Z,0.71
2022-11-16T08:43:40.046Z,0.66
2022-11-16T08:46:07.296Z,0.65
2022-11-16T08:48:35.652Z,0.72
2022-11-16T08:51:21.357Z,0.75
2022-11-16T08:53:49.838Z,0.68
2022-11-16T08:56:19.291Z,0.66
2022-11-16T08:58:47.577Z,0.59
2022-11-16T09:01:17.889Z,0.66
2022-11-16T09:03:45.190Z,0.76
2022-11-16T09:06:15.548Z,0.88
2022-11-16T09:08:45.654Z,0.94
2022-11-16T09:11:17.415Z,0.90
2022-11-16T09:13:44.962Z,1.15
2022-11-16T09:16:13.951Z,1.22
2022-11-16T09:18:42.427Z,1.07
2022-11-16T09:21:09.534Z,1.12
2022-11-16T09:23:36.825Z,1.04
2022-11-16T09:26:05.588Z,1.08
2022-11-16T09:28:34.412Z,1.22
2022-11-16T09:31:04.601Z,1.43
2022-11-16T09:33:33.679Z,1.21
2022-11-16T09:36:06.091Z,0.97
2022-11-16T09:38:47.438Z,1.01
2022-11-16T09:41:40.930Z,1.18
2022-11-16T09:44:23.751Z,1.25
2022-11-16T09:46:58.259Z,1.47
2022-11-16T09:49:30.098Z,1.33
2022-11-16T09:52:02.669Z,1.59
2022-11-16T09:54:34.290Z,1.69
2022-11-16T09:57:11.068Z,1.66
2022-11-16T09:59:46.017Z,1.56
2022-11-16T10:02:22.692Z,1.45
2022-11-16T10:04:58.410Z,1.27
2022-11-16T10:07:33.248Z,1.10
2022-11-16T10:10:00.390Z,1.11
2022-11-16T10:12:38.995Z,1.44
2022-11-16T10:15:29.384Z,1.13
2022-11-16T10:18:13.425Z,1.09
2022-11-16T10:21:07.523Z,1.00
2022-11-16T10:23:56.705Z,1.08
2022-11-16T10:26:31.563Z,1.16
2022-11-16T10:29:19.508Z,1.41
2022-11-16T10:32:10.343Z,2.35
2022-11-16T10:34:47.878Z,2.98
2022-11-16T10:37:14.920Z,3.33
2022-11-16T10:39:47.738Z,2.79
2022-11-16T10:42:21.977Z,2.47
2022-11-16T10:44:56.890Z,2.36
2022-11-16T10:47:33.893Z,2.57
2022-11-16T10:50:03.567Z,2.16
2022-11-16T10:52:30.313Z,1.81
2022-11-16T10:54:59.609Z,1.43
2022-11-16T10:58:01.627Z,1.45
2022-11-16T11:00:42.341Z,1.28
2022-11-16T11:03:10.714Z,1.12
2022-11-16T11:05:48.412Z,1.42
2022-11-16T11:08:26.252Z,1.40
2022-11-16T11:11:02.534Z,1.33
2022-11-16T11:13:29.424Z,1.35
2022-11-16T11:16:15.174Z,1.40
2022-11-16T11:18:44.589Z,1.15
2022-11-16T11:21:17.939Z,1.22
2022-11-16T11:23:49.916Z,1.12
2022-11-16T11:26:36.153Z,1.46
2022-11-16T11:29:15.606Z,1.50
2022-11-16T11:31:46.242Z,1.48
2022-11-16T11:34:20.793Z,1.49
2022-11-16T11:36:52.988Z,1.89
2022-11-16T11:39:29.619Z,4.94
2022-11-16T11:42:08.944Z,4.88
2022-11-16T11:44:44.140Z,4.12
2022-11-16T11:47:56.116Z,3.89
2022-11-16T11:50:19.699Z,3.51
2022-11-16T11:53:01.274Z,3.63
2022-11-16T11:55:29.588Z,4.00
2022-11-16T11:57:58.754Z,3.07
2022-11-16T12:00:26.581Z,3.17
2022-11-16T12:03:26.390Z,2.62
2022-11-16T12:06:11.021Z,1.98
2022-11-16T12:09:09.933Z,1.61
2022-11-16T12:11:51.522Z,1.42
2022-11-16T12:14:33.878Z,14.93
2022-11-16T12:17:07.773Z,14.57
2022-11-16T12:19:58.384Z,9.71
2022-11-16T12:22:43.489Z,7.00
2022-11-16T12:25:22.385Z,6.69
2022-11-16T12:28:07.357Z,7.38
2022-11-16T12:30:45.221Z,5.69
2022-11-16T12:33:24.653Z,8.02
2022-11-16T12:36:01.423Z,7.33
2022-11-16T12:38:53.685Z,10.13
2022-11-16T12:41:46.211Z,8.11
2022-11-16T12:44:22.241Z,4.73
2022-11-16T12:47:00.302Z,2.75
2022-11-16T12:49:57.760Z,1.68
2022-11-16T12:52:43.389Z,1.04
2022-11-16T12:55:26.668Z,0.70
2022-11-16T12:58:07.438Z,8.16
2022-11-16T13:00:50.671Z,15.49
2022-11-16T13:03:25.477Z,15.81
2022-11-16T13:06:00.105Z,14.90
2022-11-16T13:08:40.052Z,13.85
2022-11-16T13:11:16.266Z,12.54
2022-11-16T13:13:49.630Z,12.96
2022-11-16T13:16:21.280Z,11.35
2022-11-16T13:18:48.486Z,10.54
2022-11-16T13:21:26.104Z,10.94
2022-11-16T13:24:21.058Z,9.85
2022-11-16T13:26:57.549Z,9.83
2022-11-16T13:29:32.508Z,6.30
2022-11-16T13:32:08.789Z,3.89
2022-11-16T13:34:39.388Z,2.45
2022-11-16T13:37:40.284Z,1.52
2022-11-16T13:40:22.797Z,1.05
2022-11-16T13:43:14.817Z,0.75
2022-11-16T13:45:53.833Z,0.54
2022-11-16T13:48:23.637Z,0.73
2022-11-16T13:50:54.857Z,0.87
2022-11-16T13:56:18.142Z,0.81
2022-11-16T13:58:50.078Z,0.76
2022-11-16T14:01:23.843Z,1.00
2022-11-16T14:03:52.332Z,0.72
2022-11-16T14:06:59.413Z,0.70
2022-11-16T14:09:47.300Z,0.59
2022-11-16T14:12:49.270Z,0.64
2022-11-16T14:15:21.769Z,1.53
2022-11-16T14:18:21.603Z,1.00
2022-11-16T14:20:59.072Z,1.09
2022-11-16T14:23:56.246Z,1.06
2022-11-16T14:26:37.356Z,0.83
2022-11-16T14:29:33.809Z,1.36
2022-11-16T14:32:03.400Z,1.07
2022-11-16T14:34:33.449Z,0.78
2022-11-16T14:37:03.229Z,1.25
2022-11-16T14:39:36.536Z,1.83
2022-11-16T14:42:07.215Z,2.51
2022-11-16T14:44:37.811Z,2.45
2022-11-16T14:47:06.085Z,2.05
2022-11-16T14:49:35.883Z,1.64
2022-11-16T14:52:06.186Z,1.91
2022-11-16T14:54:38.300Z,1.96
2022-11-16T14:57:10.823Z,2.22
2022-11-16T14:59:37.678Z,3.93
2022-11-16T15:02:16.758Z,2.42
2022-11-16T15:04:44.707Z,1.64
2022-11-16T15:07:15.587Z,1.06
2022-11-16T15:09:47.467Z,1.14
2022-11-16T15:12:17.954Z,1.32
2022-11-16T15:14:50.150Z,1.34
2022-11-16T15:17:19.410Z,1.41
2022-11-16T15:19:55.278Z,1.13
2022-11-16T15:22:26.474Z,0.89
2022-11-16T15:24:58.406Z,0.81
2022-11-16T15:27:33.959Z,0.75
2022-11-16T15:30:04.616Z,1.00
2022-11-16T15:32:31.461Z,1.22
2022-11-16T15:35:05.174Z,1.05
2022-11-16T15:37:35.978Z,0.79
2022-11-16T15:40:05.703Z,0.70
2022-11-16T15:42:33.388Z,0.63
2022-11-16T15:45:12.865Z,0.63
2022-11-16T15:47:43.309Z,0.54
2022-11-16T15:50:17.595Z,0.63
2022-11-16T15:52:47.511Z,0.61
2022-11-16T15:55:25.838Z,0.66
2022-11-16T15:58:05.368Z,0.71
2022-11-16T16:00:36.301Z,1.42
2022-11-16T16:03:06.313Z,2.24
2022-11-16T16:05:36.544Z,3.25
2022-11-16T16:08:06.055Z,2.27
2022-11-16T16:10:33.206Z,1.82
2022-11-16T16:13:01.406Z,1.73
2022-11-16T16:15:30.563Z,2.30
2022-11-16T16:17:58.794Z,2.24
2022-11-16T16:36:50.089Z,2.44
2022-11-16T16:39:17.209Z,1.98
2022-11-16T16:41:44.118Z,1.77
2022-11-16T16:44:15.059Z,1.57
2022-11-16T16:46:44.336Z,2.04
2022-11-16T16:49:11.113Z,2.36
2022-11-16T16:51:38.346Z,3.09
2022-11-16T16:54:09.658Z,2.85
2022-11-16T16:56:37.982Z,2.36
2022-11-16T16:59:05.283Z,2.57
2022-11-16T17:01:32.253Z,1.94
2022-11-16T17:07:13.196Z,5.41
2022-11-16T17:09:49.227Z,5.81
2022-11-16T17:12:35.380Z,4.89
2022-11-16T17:15:13.902Z,3.14
2022-11-16T17:18:03.363Z,2.60
2022-11-16T17:20:35.639Z,2.60
2022-11-16T17:23:12.832Z,2.06
2022-11-16T17:25:46.100Z,2.60
2022-11-16T17:28:17.772Z,2.73
2022-11-16T17:30:46.310Z,2.78
2022-11-16T17:33:17.647Z,2.59
2022-11-16T17:38:49.541Z,2.00
2022-11-16T17:41:31.149Z,1.74
2022-11-16T17:44:00.423Z,1.47
2022-11-16T17:46:27.658Z,1.28
2022-11-16T17:48:54.690Z,1.11
2022-11-16T17:51:24.835Z,1.24
2022-11-16T17:53:52.533Z,0.89
2022-11-16T17:56:22.403Z,1.00
2022-11-16T17:58:50.355Z,1.17
2022-11-16T18:01:17.379Z,1.08
2022-11-16T18:03:44.643Z,1.11
2022-11-16T18:06:13.689Z,1.13
2022-11-16T18:08:41.522Z,1.00
2022-11-16T18:11:12.125Z,0.80
2022-11-16T18:13:40.953Z,0.85
2022-11-16T18:16:11.026Z,2.71
2022-11-16T18:18:39.289Z,3.21
2022-11-16T18:21:07.392Z,5.46
2022-11-16T18:23:35.798Z,4.90
2022-11-16T18:26:06.974Z,4.47
2022-11-16T18:28:34.442Z,5.74
2022-11-16T18:31:05.201Z,6.12
2022-11-16T18:33:35.529Z,7.93
2022-11-16T18:36:03.581Z,9.10
2022-11-16T18:38:31.263Z,11.61
2022-11-16T18:41:05.842Z,23.52
2022-11-16T18:43:33.246Z,16.57
2022-11-16T18:46:00.680Z,37.29
2022-11-16T18:48:29.560Z,43.25
2022-11-16T18:50:58.346Z,24.59
2022-11-16T18:53:27.537Z,14.00
2022-11-16T18:55:57.823Z,9.68
2022-11-16T18:58:49.276Z,5.34
2022-11-16T19:01:15.076Z,2.92
2022-11-16T19:03:44.130Z,6.90
2022-11-16T19:06:11.567Z,6.75
2022-11-16T19:08:40.890Z,34.91
2022-11-16T19:11:09.386Z,33.93
2022-11-16T19:13:39.245Z,21.91
2022-11-16T19:16:06.857Z,11.84
2022-11-16T19:18:35.492Z,14.29
2022-11-16T19:21:05.183Z,8.33
2022-11-16T19:23:36.071Z,4.42
2022-11-16T19:26:04.242Z,2.58
2022-11-16T19:28:35.021Z,1.46
2022-11-16T19:31:08.253Z,1.26
2022-11-16T19:33:35.407Z,0.76
2022-11-16T19:36:12.245Z,0.50
2022-11-16T19:38:40.599Z,0.36
2022-11-16T19:41:09.806Z,0.28
2022-11-16T19:43:37.704Z,0.24
2022-11-16T19:46:09.022Z,0.53
2022-11-16T19:48:36.717Z,0.46
2022-11-16T19:51:05.372Z,0.59
2022-11-16T19:53:33.986Z,0.67
2022-11-16T19:56:01.103Z,0.36
2022-11-16T19:58:28.244Z,0.24
2022-11-16T20:01:00.705Z,0.22
2022-11-16T20:03:27.921Z,0.21
2022-11-16T20:06:04.247Z,0.16
2022-11-16T20:08:34.048Z,0.08
2022-11-16T20:11:01.038Z,0.06
2022-11-16T20:13:31.947Z,0.03
2022-11-16T20:16:01.785Z,0.15
2022-11-16T20:18:30.207Z,0.13
2022-11-16T20:21:00.559Z,0.07
2022-11-16T20:23:27.599Z,0.04
2022-11-16T20:25:55.872Z,0.02
2022-11-16T20:28:24.907Z,0.01
2022-11-16T20:30:51.754Z,0.14
2022-11-16T20:33:19.064Z,0.07
2022-11-16T20:35:46.455Z,0.04
2022-11-16T20:38:14.340Z,0.02
2022-11-16T20:40:45.005Z,0.01
2022-11-16T20:43:13.379Z,0.01
2022-11-16T20:45:41.352Z,0.00
2022-11-16T20:48:08.128Z,0.00
2022-11-16T20:50:35.117Z,0.00
2022-11-16T20:53:02.102Z,0.00
2022-11-16T20:55:30.056Z,0.05
2022-11-16T20:57:56.837Z,0.03
2022-11-16T21:00:25.194Z,0.03
2022-11-16T21:02:51.921Z,0.02
2022-11-16T21:05:20.875Z,0.40
2022-11-16T21:07:47.686Z,0.53
2022-11-16T21:10:16.712Z,0.28
2022-11-16T21:12:43.483Z,0.15
2022-11-16T21:15:10.903Z,0.12
2022-11-16T21:17:40.420Z,0.06
2022-11-16T21:22:56.761Z,0.05
2022-11-16T21:25:23.595Z,0.02
2022-11-16T21:27:50.716Z,0.01
2022-11-16T21:30:17.855Z,0.01
2022-11-16T21:32:46.401Z,0.00
2022-11-16T21:35:13.244Z,0.00
2022-11-16T21:37:42.207Z,0.00
2022-11-16T21:40:11.177Z,0.00
2022-11-16T21:42:38.009Z,0.00
2022-11-16T21:45:05.302Z,0.00
2022-11-16T21:47:32.462Z,0.00
2022-11-16T21:50:30.673Z,0.00
2022-11-16T21:52:52.664Z,0.00
2022-11-16T21:55:19.477Z,0.00
2022-11-16T21:57:46.783Z,0.00
2022-11-16T22:00:14.807Z,0.16
2022-11-16T22:02:42.031Z,0.23
2022-11-16T22:05:10.901Z,0.12
2022-11-16T22:07:40.382Z,0.07
2022-11-16T22:10:10.139Z,0.03
2022-11-16T22:12:39.733Z,0.02
2022-11-16T22:15:08.222Z,0.01
2022-11-16T22:17:36.111Z,0.01
2022-11-16T22:20:03.356Z,0.00
2022-11-16T22:22:31.567Z,0.00
2022-11-16T22:24:59.666Z,0.00
2022-11-16T22:27:27.137Z,0.00
2022-11-16T22:29:54.988Z,0.00
2022-11-16T22:32:21.783Z,0.00
2022-11-16T22:38:19.205Z,0.00
2022-11-16T22:40:55.464Z,0.00
2022-11-16T22:47:12.198Z,0.00
2022-11-16T22:53:34.749Z,0.00
2022-11-16T22:56:15.217Z,0.00
2022-11-16T23:02:37.782Z,0.00
2022-11-16T23:08:55.843Z,0.00
2022-11-16T23:11:35.790Z,0.00
2022-11-16T23:17:57.745Z,0.02
2022-11-16T23:24:21.741Z,0.26
2022-11-16T23:26:56.357Z,0.14
2022-11-16T23:33:17.595Z,0.04
2022-11-16T23:39:41.490Z,0.01
2022-11-16T23:42:29.840Z,0.05
2022-11-16T23:49:05.311Z,0.23
2022-11-16T23:55:28.387Z,0.16
2022-11-16T23:57:56.150Z,0.08
